Time;durP1;ratioP1;P1;durP2;ratioP2;P2;SDS_P1;SDS_P2;PMS_P1;PMS_P2;Temp;Humidity;BMP_temperature;BMP_pressure;BME280_temperature;BME280_humidity;BME280_pressure;Samples;Min_cycle;Max_cycle;Signal;HPM_P1;HPM_P2
2024/03/24 00:01:09;;;;;;;39.90;26.63;;;;;;;;;;5066543;28;20092;-42
2024/03/24 00:03:37;;;;;;;38.13;25.35;;;;;;;;;;5066214;28;20020;-49
2024/03/24 00:06:03;;;;;;;83.82;29.25;;;;;;;;;;5061912;28;20374;-42
2024/03/24 00:08:30;;;;;;;38.40;26.20;;;;;;;;;;5055314;28;20102;-50
2024/03/24 00:10:59;;;;;;;40.55;26.38;;;;;;;;;;5061598;28;20031;-42
2024/03/24 00:13:26;;;;;;;53.70;27.63;;;;;;;;;;5065247;28;20080;-52
2024/03/24 00:15:52;;;;;;;38.42;27.20;;;;;;;;;;5066192;28;20021;-41
2024/03/24 00:18:19;;;;;;;49.28;29.35;;;;;;;;;;5058607;28;20326;-42
2024/03/24 00:20:45;;;;;;;39.60;26.42;;;;;;;;;;5045879;28;20025;-39
2024/03/24 00:23:12;;;;;;;33.70;25.77;;;;;;;;;;5045679;28;20022;-42
2024/03/24 00:25:39;;;;;;;37.05;25.90;;;;;;;;;;5045739;28;20036;-43
2024/03/24 00:28:06;;;;;;;40.75;25.50;;;;;;;;;;5045663;28;20030;-41
2024/03/24 00:30:33;;;;;;;38.53;25.88;;;;;;;;;;5045851;28;20053;-41
2024/03/24 00:32:59;;;;;;;32.28;25.48;;;;;;;;;;5045551;28;20021;-43
2024/03/24 00:35:26;;;;;;;34.92;26.40;;;;;;;;;;5045839;28;20014;-46
2024/03/24 00:37:52;;;;;;;36.40;27.20;;;;;;;;;;5045434;28;20052;-44
2024/03/24 00:40:19;;;;;;;62.58;28.10;;;;;;;;;;5045622;28;20325;-41
2024/03/24 00:42:46;;;;;;;38.78;25.88;;;;;;;;;;5050250;28;20055;-40
2024/03/24 00:45:12;;;;;;;35.45;26.50;;;;;;;;;;5059032;28;20028;-44
2024/03/24 00:47:39;;;;;;;36.28;26.25;;;;;;;;;;5050469;28;20028;-45
2024/03/24 00:50:06;;;;;;;52.90;26.63;;;;;;;;;;5050115;28;20033;-51
2024/03/24 00:52:32;;;;;;;53.08;27.33;;;;;;;;;;5057023;28;20017;-45
2024/03/24 00:54:59;;;;;;;97.05;31.08;;;;;;;;;;5065439;28;20025;-52
2024/03/24 00:57:26;;;;;;;49.22;27.05;;;;;;;;;;5065217;28;20021;-43
2024/03/24 00:59:52;;;;;;;45.90;28.17;;;;;;;;;;5065327;28;20204;-49
2024/03/24 01:02:19;;;;;;;41.35;27.88;;;;;;;;;;5065139;28;20373;-45
2024/03/24 01:04:46;;;;;;;53.30;28.60;;;;;;;;;;5065045;28;20029;-49
2024/03/24 01:07:12;;;;;;;56.88;31.23;;;;;;;;;;5061829;28;20024;-38
2024/03/24 01:09:39;;;;;;;47.17;29.17;;;;;;;;;;5045044;28;20025;-42
2024/03/24 01:12:07;;;;;;;228.75;40.92;;;;;;;;;;5044961;28;20025;-42
2024/03/24 01:14:33;;;;;;;61.90;29.67;;;;;;;;;;5044660;28;20298;-46
2024/03/24 01:17:00;;;;;;;68.88;29.85;;;;;;;;;;5049572;28;20026;-49
2024/03/24 01:19:26;;;;;;;68.38;28.98;;;;;;;;;;5050992;28;20049;-43
2024/03/24 01:21:53;;;;;;;45.38;27.45;;;;;;;;;;5044778;28;20025;-39
2024/03/24 01:24:19;;;;;;;41.08;26.92;;;;;;;;;;5044708;28;20033;-44
2024/03/24 01:26:46;;;;;;;34.05;26.27;;;;;;;;;;5044763;28;20041;-39
2024/03/24 01:29:13;;;;;;;43.65;27.25;;;;;;;;;;5044546;28;20025;-46
2024/03/24 01:31:40;;;;;;;44.17;27.02;;;;;;;;;;5044497;28;20029;-41
2024/03/24 01:34:07;;;;;;;36.95;27.63;;;;;;;;;;5044624;28;20325;-41
2024/03/24 01:36:33;;;;;;;49.47;27.73;;;;;;;;;;5045021;28;20080;-40
2024/03/24 01:39:00;;;;;;;35.17;27.40;;;;;;;;;;5044374;28;20056;-46
2024/03/24 01:41:28;;;;;;;36.45;27.60;;;;;;;;;;5044860;28;20066;-41
2024/03/24 01:43:54;;;;;;;36.92;26.92;;;;;;;;;;5044504;28;20317;-41
2024/03/24 01:46:21;;;;;;;45.63;27.40;;;;;;;;;;5044571;28;20021;-47
2024/03/24 01:48:48;;;;;;;53.15;29.58;;;;;;;;;;5048329;28;20060;-44
2024/03/24 01:51:15;;;;;;;36.75;27.65;;;;;;;;;;5057878;28;20296;-43
2024/03/24 01:53:42;;;;;;;38.88;29.00;;;;;;;;;;5044676;28;20028;-41
2024/03/24 01:56:09;;;;;;;37.33;28.58;;;;;;;;;;5044834;28;20051;-48
2024/03/24 01:58:37;;;;;;;35.00;29.38;;;;;;;;;;5050408;28;20100;-40
2024/03/24 02:01:05;;;;;;;41.50;29.15;;;;;;;;;;5048413;28;20119;-43
2024/03/24 02:03:32;;;;;;;37.20;28.02;;;;;;;;;;5044363;28;20075;-51
2024/03/24 02:06:01;;;;;;;47.08;29.25;;;;;;;;;;5044404;28;20026;-47
2024/03/24 02:08:29;;;;;;;43.95;30.38;;;;;;;;;;5043958;28;20064;-46
2024/03/24 02:10:56;;;;;;;38.15;28.25;;;;;;;;;;5044526;28;20258;-42
2024/03/24 02:13:22;;;;;;;35.60;28.67;;;;;;;;;;5043946;28;20085;-40
2024/03/24 02:15:49;;;;;;;38.15;30.70;;;;;;;;;;5043628;28;20029;-42
2024/03/24 02:18:16;;;;;;;34.70;29.60;;;;;;;;;;5043599;28;20052;-43
2024/03/24 02:20:42;;;;;;;41.30;30.20;;;;;;;;;;5044157;28;20021;-44
2024/03/24 02:23:09;;;;;;;43.35;30.10;;;;;;;;;;5043632;28;20025;-41
2024/03/24 02:25:36;;;;;;;37.38;30.67;;;;;;;;;;5043974;28;20029;-48
2024/03/24 02:28:03;;;;;;;50.85;32.13;;;;;;;;;;5043756;28;20045;-45
2024/03/24 02:30:30;;;;;;;39.75;31.00;;;;;;;;;;5045925;28;20017;-46
2024/03/24 02:32:56;;;;;;;40.50;30.50;;;;;;;;;;5052730;28;20022;-49
2024/03/24 02:35:23;;;;;;;37.17;29.95;;;;;;;;;;5043956;28;20021;-49
2024/03/24 02:37:49;;;;;;;38.03;31.30;;;;;;;;;;5047847;28;20049;-42
2024/03/24 02:40:16;;;;;;;40.72;30.25;;;;;;;;;;5052293;28;20059;-40
2024/03/24 02:42:42;;;;;;;34.25;30.45;;;;;;;;;;5043702;28;20036;-44
2024/03/24 02:45:11;;;;;;;44.38;31.25;;;;;;;;;;5043907;28;20089;-45
2024/03/24 02:47:39;;;;;;;40.88;31.85;;;;;;;;;;5043562;28;20321;-46
2024/03/24 02:50:06;;;;;;;34.20;30.55;;;;;;;;;;5043860;28;20033;-39
2024/03/24 02:52:33;;;;;;;38.25;31.90;;;;;;;;;;5043440;28;20018;-44
2024/03/24 02:54:59;;;;;;;41.47;32.30;;;;;;;;;;5043671;28;20347;-40
2024/03/24 02:57:26;;;;;;;39.33;31.65;;;;;;;;;;5043640;28;20240;-42
2024/03/24 02:59:53;;;;;;;38.05;30.85;;;;;;;;;;5043613;28;20206;-44
2024/03/24 03:02:20;;;;;;;37.53;30.88;;;;;;;;;;5043517;28;20264;-44
2024/03/24 03:04:46;;;;;;;39.28;31.55;;;;;;;;;;5043755;28;20041;-44
2024/03/24 03:07:13;;;;;;;34.45;30.77;;;;;;;;;;5043500;28;20087;-43
2024/03/24 03:09:40;;;;;;;38.33;31.90;;;;;;;;;;5048281;28;20036;-48
2024/03/24 03:12:06;;;;;;;38.88;30.25;;;;;;;;;;5058454;28;20059;-38
2024/03/24 03:14:33;;;;;;;41.30;30.10;;;;;;;;;;5063216;28;20033;-48
2024/03/24 03:17:00;;;;;;;40.28;30.95;;;;;;;;;;5063389;28;20017;-44
2024/03/24 03:19:26;;;;;;;44.65;31.42;;;;;;;;;;5063104;28;20129;-44
2024/03/24 03:21:53;;;;;;;55.60;33.53;;;;;;;;;;5063140;28;20051;-37
2024/03/24 03:24:19;;;;;;;45.17;32.08;;;;;;;;;;5063009;28;20039;-40
2024/03/24 03:26:46;;;;;;;52.15;31.90;;;;;;;;;;5064178;28;20092;-37
2024/03/24 03:29:13;;;;;;;54.78;31.73;;;;;;;;;;5060534;28;20021;-43
2024/03/24 03:31:39;;;;;;;44.83;29.85;;;;;;;;;;5047151;28;20048;-46
2024/03/24 03:34:06;;;;;;;46.42;30.85;;;;;;;;;;5046853;28;20053;-43
2024/03/24 03:36:32;;;;;;;55.92;31.15;;;;;;;;;;5047196;28;20021;-40
2024/03/24 03:38:59;;;;;;;48.33;30.02;;;;;;;;;;5029447;28;20063;-44
2024/03/24 03:41:25;;;;;;;33.70;29.73;;;;;;;;;;5047645;28;20029;-41
2024/03/24 03:43:52;;;;;;;41.25;30.20;;;;;;;;;;5047001;28;20025;-44
2024/03/24 03:46:19;;;;;;;38.58;29.52;;;;;;;;;;5047126;28;20238;-39
2024/03/24 03:48:48;;;;;;;33.97;29.27;;;;;;;;;;5046902;28;20324;-55
2024/03/24 03:51:27;;;;;;;35.88;29.23;;;;;;;;;;5047244;28;20025;-54
2024/03/24 03:53:57;;;;;;;36.30;29.25;;;;;;;;;;5051136;28;20190;-42
2024/03/24 03:56:23;;;;;;;34.83;28.55;;;;;;;;;;5059011;28;20051;-42
2024/03/24 03:58:50;;;;;;;34.28;29.35;;;;;;;;;;5066323;28;20021;-42
2024/03/24 04:01:17;;;;;;;34.63;28.98;;;;;;;;;;5066962;28;20020;-40
2024/03/24 04:03:43;;;;;;;33.95;29.70;;;;;;;;;;5066552;28;20091;-44
2024/03/24 04:06:10;;;;;;;33.58;27.95;;;;;;;;;;5066637;28;20047;-44
2024/03/24 04:08:37;;;;;;;33.20;29.30;;;;;;;;;;5066097;28;20041;-40
2024/03/24 04:11:03;;;;;;;35.15;28.77;;;;;;;;;;5066256;28;20080;-40
2024/03/24 04:13:30;;;;;;;36.78;28.45;;;;;;;;;;5066218;28;20174;-41
2024/03/24 04:15:57;;;;;;;32.65;28.63;;;;;;;;;;5066506;28;20186;-39
2024/03/24 04:18:23;;;;;;;34.40;29.17;;;;;;;;;;5066036;28;20402;-43
2024/03/24 04:20:50;;;;;;;32.90;28.35;;;;;;;;;;5066234;28;20209;-40
2024/03/24 04:23:17;;;;;;;32.05;28.67;;;;;;;;;;5066243;28;20286;-45
2024/03/24 04:25:44;;;;;;;32.45;28.50;;;;;;;;;;5040033;28;20025;-42
2024/03/24 04:28:10;;;;;;;32.47;27.73;;;;;;;;;;5045752;28;20084;-47
2024/03/24 04:30:37;;;;;;;30.90;27.70;;;;;;;;;;5046199;28;20029;-43
2024/03/24 04:33:03;;;;;;;34.45;28.92;;;;;;;;;;5045638;28;20217;-38
2024/03/24 04:35:30;;;;;;;33.05;27.83;;;;;;;;;;5045897;28;20025;-45
2024/03/24 04:37:56;;;;;;;33.58;28.55;;;;;;;;;;5056352;28;20036;-45
2024/03/24 04:40:23;;;;;;;31.27;27.92;;;;;;;;;;5046020;28;20044;-51
2024/03/24 04:42:50;;;;;;;32.05;28.83;;;;;;;;;;5061260;28;20036;-45
2024/03/24 04:45:16;;;;;;;30.98;27.88;;;;;;;;;;5045725;28;20364;-46
2024/03/24 04:47:43;;;;;;;33.55;28.52;;;;;;;;;;5045580;28;20029;-43
2024/03/24 04:50:10;;;;;;;33.42;28.48;;;;;;;;;;5045730;28;20084;-49
2024/03/24 04:52:36;;;;;;;35.08;28.38;;;;;;;;;;5045291;28;20021;-51
2024/03/24 04:55:03;;;;;;;33.30;29.05;;;;;;;;;;5045351;28;20017;-39
2024/03/24 04:57:29;;;;;;;34.80;28.80;;;;;;;;;;5045302;28;20085;-39
2024/03/24 04:59:57;;;;;;;32.80;29.10;;;;;;;;;;5045220;28;20021;-40
2024/03/24 05:02:24;;;;;;;32.58;29.02;;;;;;;;;;5045468;28;20029;-40
2024/03/24 05:04:50;;;;;;;32.65;29.13;;;;;;;;;;5045381;28;20309;-48
2024/03/24 05:07:17;;;;;;;33.53;27.85;;;;;;;;;;5045012;28;20254;-42
2024/03/24 05:09:44;;;;;;;32.30;28.90;;;;;;;;;;5045191;28;20009;-43
2024/03/24 05:12:12;;;;;;;34.80;28.92;;;;;;;;;;5047557;28;20205;-45
2024/03/24 05:14:38;;;;;;;34.72;29.02;;;;;;;;;;5056035;28;20125;-42
2024/03/24 05:17:05;;;;;;;34.15;28.40;;;;;;;;;;5065028;28;20080;-39
2024/03/24 05:19:33;;;;;;;35.20;29.23;;;;;;;;;;5064859;28;20161;-46
2024/03/24 05:22:00;;;;;;;32.72;29.23;;;;;;;;;;5064950;28;20084;-36
2024/03/24 05:24:27;;;;;;;35.25;29.35;;;;;;;;;;5064940;28;20021;-46
2024/03/24 05:26:53;;;;;;;35.08;28.73;;;;;;;;;;5065057;28;20201;-45
2024/03/24 05:29:20;;;;;;;31.90;28.45;;;;;;;;;;5064304;28;20036;-36
2024/03/24 05:31:58;;;;;;;32.63;27.92;;;;;;;;;;5064727;28;20025;-41
2024/03/24 05:34:27;;;;;;;34.30;29.38;;;;;;;;;;5064873;28;20013;-39
2024/03/24 05:36:54;;;;;;;32.83;28.55;;;;;;;;;;5064626;28;20021;-39
2024/03/24 05:39:21;;;;;;;32.75;29.15;;;;;;;;;;5064368;28;20309;-38
2024/03/24 05:41:48;;;;;;;31.10;27.80;;;;;;;;;;5060325;28;20029;-44
2024/03/24 05:44:15;;;;;;;32.72;28.35;;;;;;;;;;5055705;28;20025;-41
2024/03/24 05:46:42;;;;;;;34.25;27.85;;;;;;;;;;5060313;28;20396;-48
2024/03/24 05:49:12;;;;;;;32.20;28.95;;;;;;;;;;5054708;28;20123;-44
2024/03/24 05:51:39;;;;;;;33.20;28.83;;;;;;;;;;5064238;28;20060;-40
2024/03/24 05:54:06;;;;;;;33.80;28.95;;;;;;;;;;5064263;28;20013;-37
2024/03/24 05:56:33;;;;;;;34.58;29.25;;;;;;;;;;5064725;28;20080;-43
2024/03/24 05:59:00;;;;;;;36.33;29.58;;;;;;;;;;5064058;28;20024;-44
2024/03/24 06:01:26;;;;;;;32.65;29.20;;;;;;;;;;5064626;28;20032;-39
2024/03/24 06:03:53;;;;;;;32.78;28.90;;;;;;;;;;5064107;28;20036;-50
2024/03/24 06:06:20;;;;;;;33.00;29.50;;;;;;;;;;5064262;28;20301;-38
2024/03/24 06:08:46;;;;;;;33.30;29.52;;;;;;;;;;5064034;28;20028;-40
2024/03/24 06:11:13;;;;;;;33.15;28.55;;;;;;;;;;5064450;28;20017;-46
2024/03/24 06:13:40;;;;;;;34.92;28.98;;;;;;;;;;5063800;28;20209;-41
2024/03/24 06:16:07;;;;;;;31.23;28.02;;;;;;;;;;5064336;28;20025;-39
2024/03/24 06:18:33;;;;;;;36.28;28.50;;;;;;;;;;5063693;28;20059;-50
2024/03/24 06:21:02;;;;;;;31.38;28.17;;;;;;;;;;5056209;28;20120;-40
2024/03/24 06:23:29;;;;;;;45.55;28.38;;;;;;;;;;5059076;28;20262;-42
2024/03/24 06:25:55;;;;;;;35.08;28.35;;;;;;;;;;5064071;28;20101;-41
2024/03/24 06:28:22;;;;;;;32.17;28.63;;;;;;;;;;5063766;28;20317;-41
2024/03/24 06:30:49;;;;;;;34.28;29.02;;;;;;;;;;5063685;28;20051;-37
2024/03/24 06:33:16;;;;;;;35.15;28.13;;;;;;;;;;5063665;28;20209;-37
2024/03/24 06:35:42;;;;;;;34.03;28.55;;;;;;;;;;5063827;28;20025;-39
2024/03/24 06:38:09;;;;;;;31.38;28.10;;;;;;;;;;5063811;28;20032;-39
2024/03/24 06:40:35;;;;;;;32.30;28.88;;;;;;;;;;5063758;28;20036;-40
2024/03/24 06:43:02;;;;;;;31.25;27.92;;;;;;;;;;5063579;28;20028;-41
2024/03/24 06:45:34;;;;;;;32.28;28.35;;;;;;;;;;5063804;28;20033;-36
2024/03/24 06:48:05;;;;;;;31.27;27.85;;;;;;;;;;5063489;28;20029;-38
2024/03/24 06:50:32;;;;;;;30.23;27.00;;;;;;;;;;5063671;28;20036;-41
2024/03/24 06:52:59;;;;;;;34.88;28.08;;;;;;;;;;5063659;28;20021;-40
2024/03/24 06:55:26;;;;;;;30.90;27.45;;;;;;;;;;5063735;28;20360;-37
2024/03/24 06:57:53;;;;;;;33.33;28.17;;;;;;;;;;5056473;28;20033;-39
2024/03/24 07:00:19;;;;;;;31.75;28.33;;;;;;;;;;5058031;28;20193;-46
2024/03/24 07:02:46;;;;;;;32.25;28.33;;;;;;;;;;5067530;28;20063;-37
2024/03/24 07:05:13;;;;;;;30.45;27.08;;;;;;;;;;5067456;28;20028;-39
2024/03/24 07:07:40;;;;;;;31.50;28.08;;;;;;;;;;5067103;28;20025;-42
2024/03/24 07:10:07;;;;;;;31.45;28.17;;;;;;;;;;5059767;28;20060;-40
2024/03/24 07:12:34;;;;;;;32.38;28.60;;;;;;;;;;5047098;28;20025;-40
2024/03/24 07:15:01;;;;;;;31.60;28.25;;;;;;;;;;5047287;28;20029;-50
2024/03/24 07:17:28;;;;;;;30.98;27.88;;;;;;;;;;5047092;28;20025;-41
2024/03/24 07:19:54;;;;;;;32.25;28.13;;;;;;;;;;5046991;28;20380;-39
2024/03/24 07:22:21;;;;;;;32.10;28.70;;;;;;;;;;5047065;28;20030;-43
2024/03/24 07:24:47;;;;;;;31.35;28.13;;;;;;;;;;5046967;28;20029;-41
2024/03/24 07:27:14;;;;;;;32.95;29.15;;;;;;;;;;5046899;28;20036;-41
2024/03/24 07:29:41;;;;;;;32.65;28.58;;;;;;;;;;5046842;28;20021;-38
2024/03/24 07:32:08;;;;;;;31.83;28.27;;;;;;;;;;5046904;28;20024;-46
2024/03/24 07:34:35;;;;;;;31.73;28.25;;;;;;;;;;5046746;28;20198;-39
2024/03/24 07:37:02;;;;;;;31.30;27.48;;;;;;;;;;5046772;28;20075;-38
2024/03/24 07:39:29;;;;;;;32.75;28.00;;;;;;;;;;5046645;28;20056;-37
2024/03/24 07:41:55;;;;;;;32.60;28.13;;;;;;;;;;5046485;28;20217;-37
2024/03/24 07:44:22;;;;;;;30.65;27.38;;;;;;;;;;5046650;28;20017;-42
2024/03/24 07:46:48;;;;;;;33.13;28.90;;;;;;;;;;5051219;28;20029;-47
2024/03/24 07:49:15;;;;;;;31.73;28.00;;;;;;;;;;5064541;28;20025;-46
2024/03/24 07:51:42;;;;;;;32.47;28.98;;;;;;;;;;5066603;28;20021;-46
2024/03/24 07:54:09;;;;;;;32.83;28.33;;;;;;;;;;5066427;28;20017;-47
2024/03/24 07:56:35;;;;;;;33.58;28.13;;;;;;;;;;5066685;28;20020;-40
2024/03/24 07:59:02;;;;;;;31.27;27.95;;;;;;;;;;5066440;28;20025;-50
2024/03/24 08:01:29;;;;;;;31.40;28.00;;;;;;;;;;5066667;28;20029;-41
2024/03/24 08:03:55;;;;;;;33.78;28.00;;;;;;;;;;5066245;28;20092;-43
2024/03/24 08:06:22;;;;;;;31.70;28.17;;;;;;;;;;5066624;28;20037;-39
2024/03/24 08:08:49;;;;;;;33.05;28.60;;;;;;;;;;5066089;28;20028;-45
2024/03/24 08:11:15;;;;;;;33.47;27.35;;;;;;;;;;5066409;28;20032;-43
2024/03/24 08:13:42;;;;;;;32.83;28.52;;;;;;;;;;5065203;28;20205;-49
2024/03/24 08:16:08;;;;;;;31.30;28.05;;;;;;;;;;5066383;28;20032;-40
2024/03/24 08:18:36;;;;;;;30.52;27.23;;;;;;;;;;5055360;28;20241;-41
2024/03/24 08:21:03;;;;;;;31.38;28.00;;;;;;;;;;5063876;28;20068;-43
2024/03/24 08:23:30;;;;;;;33.90;27.88;;;;;;;;;;5065919;28;20335;-49
2024/03/24 08:25:56;;;;;;;32.20;27.40;;;;;;;;;;5066363;28;20037;-39
2024/03/24 08:28:23;;;;;;;31.92;27.50;;;;;;;;;;5065579;28;20066;-39
2024/03/24 08:30:49;;;;;;;30.17;26.95;;;;;;;;;;5065767;28;20025;-40
2024/03/24 08:33:16;;;;;;;31.08;27.77;;;;;;;;;;5065825;28;20013;-44
2024/03/24 08:35:43;;;;;;;31.30;28.00;;;;;;;;;;5065836;28;20021;-40
2024/03/24 08:38:09;;;;;;;30.98;27.52;;;;;;;;;;5065755;28;20021;-46
2024/03/24 08:40:36;;;;;;;31.67;28.30;;;;;;;;;;5065827;28;20056;-38
2024/03/24 08:43:02;;;;;;;33.03;26.52;;;;;;;;;;5065472;28;20025;-42
2024/03/24 08:45:29;;;;;;;32.35;28.15;;;;;;;;;;5065698;28;20088;-45
2024/03/24 08:47:56;;;;;;;31.02;27.27;;;;;;;;;;5065230;28;20024;-44
2024/03/24 08:50:22;;;;;;;31.88;28.05;;;;;;;;;;5065386;28;20197;-38
2024/03/24 08:52:49;;;;;;;31.42;27.55;;;;;;;;;;5065275;28;20013;-44
2024/03/24 08:55:15;;;;;;;32.25;28.90;;;;;;;;;;5065496;28;20301;-44
2024/03/24 08:57:42;;;;;;;33.70;28.65;;;;;;;;;;5065278;28;20021;-42
2024/03/24 09:00:09;;;;;;;31.05;27.83;;;;;;;;;;5065261;28;20299;-39
2024/03/24 09:02:36;;;;;;;32.47;28.35;;;;;;;;;;5065144;28;20017;-39
2024/03/24 09:05:03;;;;;;;30.58;27.42;;;;;;;;;;5065141;28;20021;-39
2024/03/24 09:07:30;;;;;;;31.23;27.60;;;;;;;;;;5064776;28;20041;-41
2024/03/24 09:09:57;;;;;;;30.38;27.25;;;;;;;;;;5065050;28;20033;-42
2024/03/24 09:12:23;;;;;;;31.38;28.00;;;;;;;;;;5064815;28;20012;-50
2024/03/24 09:14:50;;;;;;;34.38;27.85;;;;;;;;;;5065048;28;20351;-45
2024/03/24 09:17:17;;;;;;;31.42;28.10;;;;;;;;;;5064807;28;20021;-54
2024/03/24 09:19:43;;;;;;;32.00;28.10;;;;;;;;;;5064633;28;20329;-51
2024/03/24 09:22:10;;;;;;;32.38;28.98;;;;;;;;;;5064709;28;20033;-38
2024/03/24 09:24:36;;;;;;;31.85;27.10;;;;;;;;;;5063651;28;20312;-38
2024/03/24 09:27:06;;;;;;;32.15;27.13;;;;;;;;;;5064701;28;20044;-42
2024/03/24 09:29:33;;;;;;;31.13;27.17;;;;;;;;;;5064386;28;20074;-38
2024/03/24 09:32:00;;;;;;;32.78;27.73;;;;;;;;;;5064623;28;20243;-44
2024/03/24 09:34:27;;;;;;;31.42;28.13;;;;;;;;;;5064677;28;20081;-40
2024/03/24 09:36:53;;;;;;;32.28;27.02;;;;;;;;;;5064392;28;20043;-42
2024/03/24 09:39:20;;;;;;;32.53;28.02;;;;;;;;;;5064542;28;20083;-46
2024/03/24 09:41:47;;;;;;;32.53;28.23;;;;;;;;;;5064434;28;20028;-39
2024/03/24 09:44:15;;;;;;;32.38;27.17;;;;;;;;;;5064123;28;20032;-40
2024/03/24 09:46:43;;;;;;;34.95;27.60;;;;;;;;;;5064247;28;20017;-39
2024/03/24 09:49:14;;;;;;;30.58;27.38;;;;;;;;;;5064227;28;20028;-41
2024/03/24 09:51:41;;;;;;;31.03;27.70;;;;;;;;;;5064421;28;20028;-38
2024/03/24 09:54:11;;;;;;;35.35;27.17;;;;;;;;;;5064533;28;20243;-50
2024/03/24 09:56:38;;;;;;;31.05;27.60;;;;;;;;;;5063966;28;20025;-52
2024/03/24 09:59:05;;;;;;;34.75;27.30;;;;;;;;;;5064199;28;20024;-42
2024/03/24 10:01:33;;;;;;;34.15;26.88;;;;;;;;;;5064486;28;20131;-39
2024/03/24 10:04:00;;;;;;;32.65;28.63;;;;;;;;;;5063912;28;20116;-42
2024/03/24 10:06:27;;;;;;;36.22;27.92;;;;;;;;;;5064342;28;20278;-44
2024/03/24 10:08:54;;;;;;;44.42;27.35;;;;;;;;;;5064018;28;20049;-50
2024/03/24 10:11:47;;;;;;;32.08;27.63;;;;;;;;;;5064162;28;20025;-53
2024/03/24 10:14:15;;;;;;;39.00;28.55;;;;;;;;;;5060456;28;20336;-42
2024/03/24 10:16:41;;;;;;;33.28;29.33;;;;;;;;;;5063655;28;20017;-39
2024/03/24 10:19:11;;;;;;;35.25;28.13;;;;;;;;;;5063794;28;20083;-45
2024/03/24 10:21:38;;;;;;;32.75;29.20;;;;;;;;;;5063870;28;20036;-52
2024/03/24 10:24:08;;;;;;;34.42;29.90;;;;;;;;;;5063668;28;20031;-45
2024/03/24 10:26:36;;;;;;;34.65;30.55;;;;;;;;;;5064213;28;20100;-39
2024/03/24 10:29:06;;;;;;;35.45;30.85;;;;;;;;;;5063620;28;20028;-38
2024/03/24 10:31:33;;;;;;;33.60;30.00;;;;;;;;;;5063448;28;20086;-38
2024/03/24 10:34:02;;;;;;;35.00;30.10;;;;;;;;;;5063607;28;20013;-37
2024/03/24 10:36:31;;;;;;;35.08;30.70;;;;;;;;;;5066294;28;20317;-40
2024/03/24 10:39:03;;;;;;;34.28;29.55;;;;;;;;;;5049298;28;20028;-40
2024/03/24 10:41:30;;;;;;;36.60;29.17;;;;;;;;;;5056593;28;20083;-40
2024/03/24 10:43:59;;;;;;;35.35;30.20;;;;;;;;;;5053116;28;20048;-46
2024/03/24 10:46:25;;;;;;;34.65;30.45;;;;;;;;;;5068187;28;20055;-40
2024/03/24 10:48:53;;;;;;;48.38;30.90;;;;;;;;;;5067532;28;20055;-38
2024/03/24 10:51:21;;;;;;;36.53;31.85;;;;;;;;;;5067964;28;20106;-38
2024/03/24 10:53:49;;;;;;;52.47;31.08;;;;;;;;;;5067786;28;20321;-42
2024/03/24 10:56:15;;;;;;;46.80;31.05;;;;;;;;;;5067972;28;20033;-38
2024/03/24 10:58:43;;;;;;;42.28;31.98;;;;;;;;;;5067333;28;20071;-44
2024/03/24 11:01:11;;;;;;;38.33;30.75;;;;;;;;;;5067850;28;20031;-46
2024/03/24 11:03:38;;;;;;;41.70;30.38;;;;;;;;;;5067269;28;20087;-44
2024/03/24 11:06:05;;;;;;;35.20;30.73;;;;;;;;;;5067514;28;20070;-43
2024/03/24 11:08:31;;;;;;;39.50;31.15;;;;;;;;;;5067214;28;20193;-45
2024/03/24 11:11:01;;;;;;;36.10;31.27;;;;;;;;;;5067634;28;20048;-55
2024/03/24 11:13:29;;;;;;;35.05;31.30;;;;;;;;;;5067312;28;20331;-42
2024/03/24 11:15:56;;;;;;;34.50;30.77;;;;;;;;;;5067438;28;20096;-45
2024/03/24 11:18:24;;;;;;;36.33;31.52;;;;;;;;;;5066965;28;20076;-47
2024/03/24 11:20:52;;;;;;;34.40;30.73;;;;;;;;;;5067267;28;20024;-44
2024/03/24 11:23:22;;;;;;;36.92;31.83;;;;;;;;;;5067279;28;20031;-40
2024/03/24 11:25:59;;;;;;;36.72;31.33;;;;;;;;;;5067186;28;20284;-43
2024/03/24 11:28:45;;;;;;;39.55;32.35;;;;;;;;;;5066953;28;20106;-46
2024/03/24 11:31:16;;;;;;;36.42;30.63;;;;;;;;;;5066734;28;20036;-50
2024/03/24 11:33:45;;;;;;;42.75;31.45;;;;;;;;;;5066734;28;20045;-39
2024/03/24 11:36:18;;;;;;;52.70;31.10;;;;;;;;;;5067030;28;20036;-41
2024/03/24 11:38:49;;;;;;;40.90;32.38;;;;;;;;;;5066532;28;20017;-44
2024/03/24 11:41:16;;;;;;;44.47;32.50;;;;;;;;;;5067017;28;20041;-41
2024/03/24 11:43:43;;;;;;;46.08;31.80;;;;;;;;;;5066647;28;20025;-47
2024/03/24 11:46:11;;;;;;;45.92;31.25;;;;;;;;;;5066744;28;20070;-48
2024/03/24 11:48:38;;;;;;;52.40;32.42;;;;;;;;;;5065207;28;20297;-45
2024/03/24 11:51:08;;;;;;;44.08;33.13;;;;;;;;;;5066785;28;20353;-44
2024/03/24 11:53:35;;;;;;;60.97;33.00;;;;;;;;;;5066228;28;20209;-47
2024/03/24 11:56:04;;;;;;;41.40;32.35;;;;;;;;;;5066787;28;20025;-44
2024/03/24 11:58:31;;;;;;;45.80;32.58;;;;;;;;;;5066519;28;20027;-43
2024/03/24 12:01:00;;;;;;;50.28;32.75;;;;;;;;;;5066451;28;20036;-49
2024/03/24 12:03:26;;;;;;;54.85;34.05;;;;;;;;;;5066195;28;20021;-39
2024/03/24 12:05:56;;;;;;;43.97;31.83;;;;;;;;;;5066510;28;20029;-38
2024/03/24 12:08:26;;;;;;;49.45;32.45;;;;;;;;;;5066062;28;20083;-42
2024/03/24 12:10:52;;;;;;;42.80;32.25;;;;;;;;;;5065715;28;20044;-43
2024/03/24 12:13:19;;;;;;;44.63;32.65;;;;;;;;;;5065103;28;20020;-40
2024/03/24 12:15:46;;;;;;;48.33;33.40;;;;;;;;;;5066149;28;20032;-53
2024/03/24 12:18:13;;;;;;;44.40;32.90;;;;;;;;;;5065871;28;20083;-40
2024/03/24 12:20:40;;;;;;;44.33;33.15;;;;;;;;;;5066347;28;20028;-42
2024/03/24 12:23:07;;;;;;;40.20;31.90;;;;;;;;;;5065762;28;20108;-40
2024/03/24 12:25:34;;;;;;;47.75;33.22;;;;;;;;;;5066150;28;20297;-50
2024/03/24 12:28:01;;;;;;;41.17;31.40;;;;;;;;;;5065707;28;20025;-44
2024/03/24 12:30:28;;;;;;;44.10;33.28;;;;;;;;;;5065819;28;20032;-54
2024/03/24 12:32:56;;;;;;;42.83;32.72;;;;;;;;;;5065687;28;20021;-44
2024/03/24 12:35:24;;;;;;;57.38;42.83;;;;;;;;;;5065804;28;20024;-44
2024/03/24 12:37:51;;;;;;;57.03;39.03;;;;;;;;;;5065773;28;20021;-52
2024/03/24 12:40:22;;;;;;;53.45;36.20;;;;;;;;;;5065881;28;20301;-42
2024/03/24 12:42:49;;;;;;;47.80;37.83;;;;;;;;;;5065465;28;20041;-42
2024/03/24 12:45:16;;;;;;;47.30;36.90;;;;;;;;;;5065607;28;20200;-41
2024/03/24 12:47:43;;;;;;;43.08;35.88;;;;;;;;;;5065326;28;20017;-40
2024/03/24 12:50:26;;;;;;;49.08;36.58;;;;;;;;;;5065608;28;20323;-41
2024/03/24 12:52:59;;;;;;;40.92;34.60;;;;;;;;;;5065276;28;20021;-43
2024/03/24 12:55:27;;;;;;;48.00;35.55;;;;;;;;;;5065399;28;20041;-41
2024/03/24 12:57:54;;;;;;;39.95;33.67;;;;;;;;;;5065188;28;20209;-42
2024/03/24 13:00:21;;;;;;;59.67;35.65;;;;;;;;;;5065231;28;20036;-41
2024/03/24 13:02:48;;;;;;;59.13;34.17;;;;;;;;;;5065216;28;20017;-45
2024/03/24 13:05:16;;;;;;;58.58;34.85;;;;;;;;;;5065354;28;20327;-43
2024/03/24 13:07:43;;;;;;;47.03;34.28;;;;;;;;;;5064868;28;20139;-43
2024/03/24 13:10:13;;;;;;;41.17;32.22;;;;;;;;;;5065149;28;20087;-48
2024/03/24 13:12:39;;;;;;;41.55;32.78;;;;;;;;;;5064855;28;20089;-45
2024/03/24 13:15:06;;;;;;;40.30;32.88;;;;;;;;;;5063288;28;20024;-39
2024/03/24 13:17:34;;;;;;;42.00;32.63;;;;;;;;;;5064878;28;20021;-42
2024/03/24 13:20:04;;;;;;;40.20;32.72;;;;;;;;;;5045021;28;20073;-38
2024/03/24 13:22:32;;;;;;;43.50;34.15;;;;;;;;;;5045068;28;20029;-41
2024/03/24 13:25:04;;;;;;;44.25;33.83;;;;;;;;;;5044711;28;20032;-43
2024/03/24 13:27:30;;;;;;;;;;;;;;;;;;5045170;28;20028;-45
2024/03/24 13:29:57;;;;;;;41.25;33.70;;;;;;;;;;5031083;28;20251;-44
2024/03/24 13:32:23;;;;;;;36.15;32.30;;;;;;;;;;5024778;28;20018;-43
2024/03/24 13:34:50;;;;;;;42.00;32.50;;;;;;;;;;5024980;28;20025;-40
2024/03/24 13:37:27;;;;;;;39.13;32.42;;;;;;;;;;5024863;28;20018;-44
2024/03/24 13:40:06;;;;;;;38.88;32.65;;;;;;;;;;5035035;28;20055;-42
2024/03/24 13:42:36;;;;;;;39.95;32.42;;;;;;;;;;5044513;28;20024;-44
2024/03/24 13:45:19;;;;;;;35.05;31.08;;;;;;;;;;5044566;28;20029;-51
2024/03/24 13:47:49;;;;;;;38.03;32.35;;;;;;;;;;5044395;28;20017;-40
2024/03/24 13:50:16;;;;;;;38.95;31.10;;;;;;;;;;5044383;28;20030;-48
2024/03/24 13:52:43;;;;;;;40.30;32.85;;;;;;;;;;5044176;28;20063;-46
2024/03/24 13:55:10;;;;;;;39.80;32.03;;;;;;;;;;5044522;28;20029;-54
2024/03/24 13:57:36;;;;;;;39.97;33.38;;;;;;;;;;5044002;28;20021;-43
2024/03/24 14:00:04;;;;;;;36.67;31.15;;;;;;;;;;5044382;28;20221;-48
2024/03/24 14:02:30;;;;;;;35.35;31.48;;;;;;;;;;5044156;28;20022;-56
2024/03/24 14:04:57;;;;;;;37.00;32.78;;;;;;;;;;5044302;28;20093;-48
2024/03/24 14:07:24;;;;;;;35.67;31.88;;;;;;;;;;5044021;28;20036;-42
2024/03/24 14:09:52;;;;;;;36.53;31.33;;;;;;;;;;5043796;28;20033;-44
2024/03/24 14:12:26;;;;;;;35.13;31.25;;;;;;;;;;5043776;28;20018;-43
2024/03/24 14:15:03;;;;;;;35.95;32.20;;;;;;;;;;5044253;28;20318;-48
2024/03/24 14:17:41;;;;;;;36.92;31.95;;;;;;;;;;5043971;28;20028;-41